createdAt,value
2022-09-20T00:01:21.586Z,14.91
2022-09-20T00:04:24.600Z,13.45
2022-09-20T00:07:27.612Z,12.44
2022-09-20T00:10:33.192Z,11.78
2022-09-20T00:13:37.525Z,11.76
2022-09-20T00:16:42.116Z,11.89
2022-09-20T00:19:44.962Z,12.50
2022-09-20T00:22:50.220Z,12.39
2022-09-20T00:26:00.426Z,12.31
2022-09-20T00:29:04.414Z,11.92
2022-09-20T00:32:07.487Z,11.74
2022-09-20T00:35:11.519Z,11.75
2022-09-20T00:38:15.366Z,11.62
2022-09-20T00:41:18.384Z,11.52
2022-09-20T00:44:50.027Z,11.58
2022-09-20T00:48:08.557Z,11.54
2022-09-20T00:51:16.318Z,11.62
2022-09-20T00:54:22.644Z,11.66
2022-09-20T00:57:26.287Z,11.67
2022-09-20T01:00:29.877Z,11.74
2022-09-20T01:03:34.699Z,11.82
2022-09-20T01:06:37.769Z,11.95
2022-09-20T01:09:40.770Z,12.00
2022-09-20T01:12:46.668Z,12.24
2022-09-20T01:15:51.265Z,12.42
2022-09-20T01:18:56.023Z,12.48
2022-09-20T01:21:59.445Z,12.44
2022-09-20T01:25:16.897Z,12.33
2022-09-20T01:28:20.159Z,11.98
2022-09-20T01:31:40.984Z,11.74
2022-09-20T01:34:51.645Z,11.59
2022-09-20T01:38:15.993Z,11.59
2022-09-20T01:41:26.008Z,11.58
2022-09-20T01:44:41.112Z,11.58
2022-09-20T01:47:49.938Z,11.74
2022-09-20T01:51:11.182Z,11.66
2022-09-20T01:54:32.656Z,11.76
2022-09-20T01:58:05.191Z,11.76
2022-09-20T02:01:31.080Z,11.80
2022-09-20T02:05:11.129Z,11.81
2022-09-20T02:08:35.643Z,11.87
2022-09-20T02:12:10.791Z,12.17
2022-09-20T02:15:37.238Z,12.62
2022-09-20T02:19:04.291Z,13.01
2022-09-20T02:22:16.259Z,13.39
2022-09-20T02:25:37.890Z,13.65
2022-09-20T02:29:11.157Z,13.68
2022-09-20T02:32:25.550Z,13.54
2022-09-20T02:35:40.823Z,13.62
2022-09-20T02:39:03.566Z,13.97
2022-09-20T02:42:25.893Z,14.08
2022-09-20T02:46:10.375Z,13.98
2022-09-20T02:49:25.164Z,13.87
2022-09-20T02:52:38.639Z,13.79
2022-09-20T02:55:50.428Z,13.96
2022-09-20T02:59:12.505Z,14.14
2022-09-20T03:02:44.786Z,13.94
2022-09-20T03:05:59.909Z,13.98
2022-09-20T03:09:28.551Z,14.29
2022-09-20T03:12:58.565Z,14.75
2022-09-20T03:16:10.953Z,15.09
2022-09-20T03:19:54.140Z,15.39
2022-09-20T03:23:11.729Z,15.45
2022-09-20T03:26:41.964Z,15.56
2022-09-20T03:30:15.833Z,15.73
2022-09-20T03:33:25.084Z,15.73
2022-09-20T03:36:49.947Z,15.60
2022-09-20T03:40:20.652Z,15.46
2022-09-20T03:43:48.524Z,15.69
2022-09-20T03:47:11.455Z,15.78
2022-09-20T03:50:45.661Z,16.06
2022-09-20T03:53:58.107Z,16.18
2022-09-20T03:57:19.889Z,16.18
2022-09-20T04:00:25.143Z,16.27
2022-09-20T04:03:41.753Z,16.29
2022-09-20T04:07:05.956Z,16.26
2022-09-20T04:10:36.775Z,16.26
2022-09-20T04:13:45.461Z,16.02
2022-09-20T04:17:14.580Z,15.82
2022-09-20T04:20:37.127Z,15.85
2022-09-20T04:23:46.358Z,15.74
2022-09-20T04:26:56.621Z,15.57
2022-09-20T04:29:59.701Z,15.44
2022-09-20T04:33:37.947Z,15.35
2022-09-20T04:37:03.488Z,15.24
2022-09-20T04:40:14.547Z,15.23
2022-09-20T04:43:38.897Z,15.26
2022-09-20T04:47:01.016Z,15.32
2022-09-20T04:50:21.834Z,15.43
2022-09-20T04:53:43.798Z,15.44
2022-09-20T04:57:23.150Z,15.53
2022-09-20T05:00:43.667Z,15.37
2022-09-20T05:03:50.617Z,15.53
2022-09-20T05:07:26.507Z,15.78
2022-09-20T05:10:59.845Z,15.97
2022-09-20T05:14:39.775Z,16.29
2022-09-20T05:18:00.896Z,16.81
2022-09-20T05:21:15.989Z,17.14
2022-09-20T05:24:40.936Z,17.45
2022-09-20T05:27:52.288Z,17.71
2022-09-20T05:31:02.327Z,17.77
2022-09-20T05:34:10.720Z,17.84
2022-09-20T05:37:52.115Z,18.00
2022-09-20T05:41:15.005Z,18.11
2022-09-20T05:44:33.625Z,18.07
2022-09-20T05:47:43.145Z,18.01
2022-09-20T05:51:23.191Z,18.28
2022-09-20T05:54:48.324Z,18.45
2022-09-20T05:58:04.793Z,18.39
2022-09-20T06:01:27.465Z,18.36
2022-09-20T06:04:42.522Z,18.25
2022-09-20T06:08:06.079Z,18.15
2022-09-20T06:11:30.733Z,17.97
2022-09-20T06:14:55.610Z,17.88
2022-09-20T06:18:17.004Z,17.90
2022-09-20T06:21:46.442Z,17.99
2022-09-20T06:24:57.337Z,17.98
2022-09-20T06:28:21.554Z,17.91
2022-09-20T06:31:24.796Z,17.99
2022-09-20T06:34:29.804Z,18.08
2022-09-20T06:38:24.939Z,18.13
2022-09-20T06:41:32.300Z,18.07
2022-09-20T06:44:41.985Z,17.96
2022-09-20T06:47:45.220Z,17.72
2022-09-20T06:50:48.461Z,17.66
2022-09-20T06:53:52.542Z,17.68
2022-09-20T06:56:57.622Z,17.74
2022-09-20T07:00:01.174Z,17.86
2022-09-20T07:03:04.820Z,18.00
2022-09-20T07:06:08.530Z,17.98
2022-09-20T07:09:12.331Z,18.11
2022-09-20T07:12:16.086Z,17.98
2022-09-20T07:15:23.463Z,17.93
2022-09-20T07:18:29.162Z,17.87
2022-09-20T07:21:35.284Z,17.93
2022-09-20T07:24:39.525Z,17.95
2022-09-20T07:27:43.451Z,17.92
2022-09-20T07:30:50.636Z,17.92
2022-09-20T07:33:55.094Z,17.91
2022-09-20T07:37:00.319Z,17.86
2022-09-20T07:40:06.238Z,17.86
2022-09-20T07:43:09.908Z,17.81
2022-09-20T07:46:16.396Z,17.75
2022-09-20T07:49:21.000Z,17.72
2022-09-20T07:52:24.215Z,17.66
2022-09-20T07:55:27.415Z,17.67
2022-09-20T07:58:32.558Z,17.68
2022-09-20T08:01:36.552Z,17.63
2022-09-20T08:04:39.753Z,17.56
2022-09-20T08:07:42.906Z,17.45
2022-09-20T08:10:46.965Z,17.35
2022-09-20T08:14:16.660Z,17.28
2022-09-20T08:17:15.193Z,17.37
2022-09-20T08:20:18.972Z,17.25
2022-09-20T08:23:24.156Z,17.23
2022-09-20T08:26:29.459Z,17.24
2022-09-20T08:29:35.556Z,17.17
2022-09-20T08:32:40.968Z,17.11
2022-09-20T08:35:44.066Z,17.01
2022-09-20T08:42:28.046Z,16.82
2022-09-20T08:45:34.998Z,16.70
2022-09-20T08:48:39.002Z,16.63
2022-09-20T08:51:48.499Z,16.58
2022-09-20T08:54:52.414Z,16.45
2022-09-20T08:57:57.935Z,16.37
2022-09-20T09:01:03.322Z,16.33
2022-09-20T09:04:14.009Z,16.30
2022-09-20T09:07:22.372Z,16.20
2022-09-20T09:10:25.912Z,16.12
2022-09-20T09:13:52.045Z,16.15
2022-09-20T09:16:56.235Z,16.05
2022-09-20T09:20:08.392Z,15.99
2022-09-20T09:23:27.656Z,15.90
2022-09-20T09:26:41.340Z,15.89
2022-09-20T09:29:57.451Z,15.93
2022-09-20T09:33:30.867Z,15.88
2022-09-20T09:36:34.282Z,15.71
2022-09-20T09:39:38.776Z,15.63
2022-09-20T09:42:50.826Z,15.57
2022-09-20T09:45:56.035Z,15.44
2022-09-20T09:49:11.983Z,15.36
2022-09-20T09:52:25.299Z,15.29
2022-09-20T09:55:52.169Z,15.25
2022-09-20T09:59:05.321Z,15.23
2022-09-20T10:02:20.505Z,15.11
2022-09-20T10:05:32.816Z,14.98
2022-09-20T10:09:00.390Z,14.96
2022-09-20T10:12:22.373Z,14.87
2022-09-20T10:15:45.451Z,14.82
2022-09-20T10:19:27.404Z,14.80
2022-09-20T10:23:30.128Z,14.77
2022-09-20T10:26:38.254Z,14.74
2022-09-20T10:30:17.292Z,14.72
2022-09-20T10:34:14.785Z,14.65
2022-09-20T10:37:26.003Z,14.54
2022-09-20T10:40:56.169Z,14.51
2022-09-20T10:44:18.090Z,14.48
2022-09-20T10:47:29.472Z,14.41
2022-09-20T10:50:39.419Z,14.34
2022-09-20T10:54:16.246Z,14.31
2022-09-20T10:57:29.982Z,14.27
2022-09-20T11:00:50.193Z,14.23
2022-09-20T11:04:11.492Z,14.17
2022-09-20T11:07:39.409Z,14.17
2022-09-20T11:10:59.008Z,14.17
2022-09-20T11:14:14.222Z,14.12
2022-09-20T11:17:24.382Z,14.10
2022-09-20T11:20:33.389Z,13.99
2022-09-20T11:23:46.419Z,13.89
2022-09-20T11:26:54.257Z,13.82
2022-09-20T11:30:03.572Z,13.76
2022-09-20T11:33:22.962Z,13.71
2022-09-20T11:36:58.136Z,13.67
2022-09-20T11:40:33.029Z,13.63
2022-09-20T11:43:39.726Z,13.54
2022-09-20T11:46:45.945Z,13.52
2022-09-20T11:50:04.821Z,13.51
2022-09-20T11:53:18.622Z,13.43
2022-09-20T11:56:25.920Z,13.39
2022-09-20T11:59:29.185Z,13.39
2022-09-20T12:02:51.070Z,13.38
2022-09-20T12:06:06.909Z,13.37
2022-09-20T12:09:36.746Z,13.35
2022-09-20T12:12:46.028Z,13.31
2022-09-20T12:15:59.846Z,13.29
2022-09-20T12:19:28.073Z,13.26
2022-09-20T12:22:32.054Z,13.25
2022-09-20T12:25:40.883Z,13.21
2022-09-20T12:28:51.815Z,13.18
2022-09-20T12:31:57.430Z,13.16
2022-09-20T12:35:01.574Z,13.12
2022-09-20T12:38:31.087Z,13.08
2022-09-20T12:41:59.385Z,13.06
2022-09-20T12:45:06.135Z,13.02
2022-09-20T12:48:20.245Z,12.99
2022-09-20T12:51:51.482Z,12.99
2022-09-20T12:54:59.235Z,13.02
2022-09-20T12:58:15.027Z,13.04
2022-09-20T13:01:18.296Z,12.95
2022-09-20T13:04:55.987Z,12.95
2022-09-20T13:08:10.532Z,12.92
2022-09-20T13:11:22.402Z,12.96
2022-09-20T13:14:32.167Z,12.90
2022-09-20T13:17:35.579Z,12.88
2022-09-20T13:20:40.669Z,12.82
2022-09-20T13:23:53.169Z,12.79
2022-09-20T13:27:01.086Z,12.76
2022-09-20T13:30:29.512Z,12.71
2022-09-20T13:33:32.704Z,12.63
2022-09-20T13:36:36.734Z,12.55
2022-09-20T13:39:39.807Z,12.51
2022-09-20T13:42:44.644Z,12.46
2022-09-20T13:45:48.156Z,12.54
2022-09-20T13:49:08.085Z,12.48
2022-09-20T13:52:24.702Z,12.41
2022-09-20T13:55:35.147Z,12.34
2022-09-20T13:58:39.184Z,12.30
2022-09-20T14:01:46.602Z,12.26
2022-09-20T14:04:51.158Z,12.20
2022-09-20T14:07:55.210Z,12.17
2022-09-20T14:11:05.373Z,12.14
2022-09-20T14:14:10.718Z,12.09
2022-09-20T14:17:19.631Z,12.07
2022-09-20T14:20:23.749Z,12.03
2022-09-20T14:23:29.441Z,12.08
2022-09-20T14:26:37.780Z,12.09
2022-09-20T14:29:53.590Z,11.97
2022-09-20T14:32:57.995Z,11.96
2022-09-20T14:36:01.412Z,11.96
2022-09-20T14:39:06.160Z,11.96
2022-09-20T14:42:23.678Z,11.96
2022-09-20T14:45:41.698Z,11.92
2022-09-20T14:48:46.046Z,11.81
2022-09-20T14:51:50.006Z,11.74
2022-09-20T14:55:05.299Z,11.64
2022-09-20T14:58:12.819Z,11.55
2022-09-20T15:01:25.011Z,11.47
2022-09-20T15:04:29.322Z,11.40
2022-09-20T15:07:32.327Z,11.29
2022-09-20T15:10:35.435Z,11.25
2022-09-20T15:13:38.367Z,11.17
2022-09-20T15:16:41.408Z,11.13
2022-09-20T15:19:44.641Z,11.11
2022-09-20T15:22:48.696Z,11.06
2022-09-20T15:25:53.393Z,11.06
2022-09-20T15:28:56.419Z,11.05
2022-09-20T15:32:00.109Z,11.02
2022-09-20T15:35:03.118Z,10.96
2022-09-20T15:38:09.587Z,10.94
2022-09-20T15:41:12.600Z,10.92
2022-09-20T15:44:19.294Z,10.89
2022-09-20T15:47:25.589Z,10.84
2022-09-20T15:50:28.905Z,10.80
2022-09-20T15:53:37.290Z,10.72
2022-09-20T15:56:43.270Z,10.66
2022-09-20T15:59:46.335Z,10.59
2022-09-20T16:02:50.524Z,10.54
2022-09-20T16:06:07.623Z,10.50
2022-09-20T16:09:10.750Z,10.46
2022-09-20T16:12:13.789Z,10.37
2022-09-20T16:15:16.869Z,10.31
2022-09-20T16:18:38.255Z,10.27
2022-09-20T16:24:45.232Z,10.17
2022-09-20T16:27:48.318Z,10.15
2022-09-20T16:30:59.128Z,10.15
2022-09-20T16:34:12.383Z,10.13
2022-09-20T16:37:18.266Z,10.11
2022-09-20T16:40:21.251Z,10.07
2022-09-20T16:43:26.963Z,10.02
2022-09-20T16:46:31.885Z,10.01
2022-09-20T16:49:35.581Z,10.00
2022-09-20T16:52:39.642Z,9.90
2022-09-20T16:55:45.756Z,9.87
2022-09-20T16:58:49.730Z,9.82
2022-09-20T17:01:53.171Z,9.80
2022-09-20T17:04:56.447Z,9.77
2022-09-20T17:08:01.357Z,9.66
2022-09-20T17:11:04.392Z,9.62
2022-09-20T17:14:08.576Z,9.58
2022-09-20T17:17:11.552Z,9.52
2022-09-20T17:20:15.349Z,9.52
2022-09-20T17:23:18.448Z,9.45
2022-09-20T17:26:26.860Z,9.45
2022-09-20T17:29:29.923Z,9.38
2022-09-20T17:32:32.914Z,9.35
2022-09-20T17:35:36.165Z,9.33
2022-09-20T17:38:40.146Z,9.34
2022-09-20T17:41:45.745Z,9.31
2022-09-20T17:44:48.822Z,9.25
2022-09-20T17:47:52.185Z,9.21
2022-09-20T17:50:58.425Z,9.23
2022-09-20T17:54:02.106Z,9.23
2022-09-20T17:57:06.178Z,9.21
2022-09-20T18:00:09.841Z,9.20
2022-09-20T18:03:12.822Z,9.20
2022-09-20T18:06:21.652Z,9.24
2022-09-20T18:09:26.376Z,9.23
2022-09-20T18:12:30.343Z,9.27
2022-09-20T18:15:34.461Z,9.28
2022-09-20T18:18:38.625Z,9.25
2022-09-20T18:21:41.656Z,9.21
2022-09-20T18:24:44.704Z,9.18
2022-09-20T18:27:48.217Z,9.18
2022-09-20T18:31:02.481Z,9.18
2022-09-20T18:34:07.828Z,9.17
2022-09-20T18:37:14.528Z,9.14
2022-09-20T18:40:18.138Z,9.09
2022-09-20T18:43:21.210Z,9.07
2022-09-20T18:46:26.021Z,9.00
2022-09-20T18:49:30.914Z,9.01
2022-09-20T18:52:36.413Z,8.95
2022-09-20T18:55:40.110Z,8.91
2022-09-20T18:58:45.279Z,8.88
2022-09-20T19:02:22.634Z,8.88
2022-09-20T19:05:46.325Z,8.89
2022-09-20T19:09:03.552Z,8.90
2022-09-20T19:12:20.519Z,8.87
2022-09-20T19:15:45.393Z,8.87
2022-09-20T19:19:15.584Z,8.89
2022-09-20T19:22:50.723Z,8.91
2022-09-20T19:26:08.436Z,8.84
2022-09-20T19:29:23.295Z,8.79
2022-09-20T19:32:27.955Z,8.71
2022-09-20T19:35:40.980Z,8.70
2022-09-20T19:38:55.550Z,8.65
2022-09-20T19:42:25.568Z,8.67
2022-09-20T19:45:38.914Z,8.65
2022-09-20T19:48:49.686Z,8.66
2022-09-20T19:51:53.068Z,8.68
2022-09-20T19:54:56.419Z,8.70
2022-09-20T19:58:00.087Z,8.71
2022-09-20T20:01:03.515Z,8.77
2022-09-20T20:04:07.208Z,8.82
2022-09-20T20:07:34.414Z,8.85
2022-09-20T20:10:58.189Z,8.83
2022-09-20T20:14:31.382Z,8.81
2022-09-20T20:17:47.006Z,8.78
2022-09-20T20:20:52.172Z,8.77
2022-09-20T20:24:08.176Z,8.81
2022-09-20T20:27:11.278Z,8.82
2022-09-20T20:30:14.413Z,8.83
2022-09-20T20:33:19.579Z,8.84
2022-09-20T20:36:22.555Z,8.83
2022-09-20T20:39:25.571Z,8.81
2022-09-20T20:42:28.647Z,8.74
2022-09-20T20:45:31.785Z,8.67
2022-09-20T20:48:35.445Z,8.60
2022-09-20T20:51:38.832Z,8.55
2022-09-20T20:54:42.009Z,8.52
2022-09-20T20:57:45.077Z,8.46
2022-09-20T21:00:48.143Z,8.42
2022-09-20T21:03:53.211Z,8.42
2022-09-20T21:06:56.291Z,8.43
2022-09-20T21:09:59.443Z,8.45
2022-09-20T21:13:03.339Z,8.47
2022-09-20T21:16:14.637Z,8.50
2022-09-20T21:19:18.850Z,8.49
2022-09-20T21:22:21.821Z,8.57
2022-09-20T21:25:24.788Z,8.61
2022-09-20T21:28:27.840Z,8.62
2022-09-20T21:31:34.479Z,8.64
2022-09-20T21:34:37.771Z,8.66
2022-09-20T21:37:41.087Z,8.70
2022-09-20T21:40:44.085Z,8.71
2022-09-20T21:43:49.300Z,8.68
2022-09-20T21:46:55.238Z,8.70
2022-09-20T21:49:58.304Z,8.75
2022-09-20T21:53:01.384Z,8.75
2022-09-20T21:56:06.702Z,8.74
2022-09-20T21:59:10.281Z,8.74
2022-09-20T22:02:13.452Z,8.72
2022-09-20T22:05:16.581Z,8.74
2022-09-20T22:08:19.605Z,8.73
2022-09-20T22:11:23.085Z,8.72
2022-09-20T22:14:26.320Z,8.75
2022-09-20T22:17:30.260Z,8.78
2022-09-20T22:20:33.284Z,8.79
2022-09-20T22:23:36.528Z,8.87
2022-09-20T22:26:43.484Z,8.93
2022-09-20T22:29:46.642Z,8.99
2022-09-20T22:32:49.737Z,8.99
2022-09-20T22:35:52.946Z,8.96
2022-09-20T22:38:57.005Z,8.97
2022-09-20T22:42:00.101Z,8.93
2022-09-20T22:45:03.248Z,8.91
2022-09-20T22:48:06.263Z,8.82
2022-09-20T22:51:12.347Z,8.73
2022-09-20T22:54:15.404Z,8.70
2022-09-20T22:57:23.154Z,8.64
2022-09-20T23:00:26.471Z,8.60
2022-09-20T23:03:30.455Z,8.59
2022-09-20T23:06:40.799Z,8.62
2022-09-20T23:09:43.977Z,8.60
2022-09-20T23:12:51.482Z,8.59
2022-09-20T23:15:54.434Z,8.60
2022-09-20T23:18:59.863Z,8.65
2022-09-20T23:22:14.882Z,8.64
2022-09-20T23:25:18.516Z,8.68
2022-09-20T23:28:27.436Z,8.79
2022-09-20T23:31:32.615Z,8.85
2022-09-20T23:34:36.082Z,8.94
2022-09-20T23:37:40.726Z,9.06
2022-09-20T23:40:44.248Z,9.15
2022-09-20T23:43:49.008Z,9.23
2022-09-20T23:46:57.980Z,9.31
2022-09-20T23:50:01.529Z,9.38
2022-09-20T23:53:04.775Z,9.47
2022-09-20T23:56:09.802Z,9.55
2022-09-20T23:59:12.591Z,9.70
